sensor_id;sensor_type;location;lat;lon;timestamp;pressure;altitude;pressure_sealevel;temperature;humidity
55347;BME280;41218;55.700;38.270;2023-07-29T00:04:47;98806.41;;;17.86;72.00
55347;BME280;41218;55.700;38.270;2023-07-29T00:09:47;98814.59;;;17.93;72.03
55347;BME280;41218;55.700;38.270;2023-07-29T00:14:48;98815.41;;;17.77;72.20
55347;BME280;41218;55.700;38.270;2023-07-29T00:19:48;98800.47;;;17.84;72.21
55347;BME280;41218;55.700;38.270;2023-07-29T00:24:53;98804.31;;;17.74;72.45
55347;BME280;41218;55.700;38.270;2023-07-29T00:29:57;98794.13;;;17.67;72.31
55347;BME280;41218;55.700;38.270;2023-07-29T00:34:58;98790.69;;;17.76;72.35
55347;BME280;41218;55.700;38.270;2023-07-29T00:40:01;98794.56;;;17.66;72.35
55347;BME280;41218;55.700;38.270;2023-07-29T00:45:01;98788.88;;;17.69;72.50
55347;BME280;41218;55.700;38.270;2023-07-29T00:50:02;98797.22;;;17.56;72.13
55347;BME280;41218;55.700;38.270;2023-07-29T00:55:05;98794.63;;;17.49;72.54
55347;BME280;41218;55.700;38.270;2023-07-29T01:00:06;98787.91;;;17.47;72.51
55347;BME280;41218;55.700;38.270;2023-07-29T01:05:07;98774.81;;;17.43;72.81
55347;BME280;41218;55.700;38.270;2023-07-29T01:10:10;98783.25;;;17.56;72.53
55347;BME280;41218;55.700;38.270;2023-07-29T01:15:24;98782.41;;;17.43;72.61
55347;BME280;41218;55.700;38.270;2023-07-29T01:20:26;98767.06;;;17.35;72.55
55347;BME280;41218;55.700;38.270;2023-07-29T01:25:27;98771.97;;;17.31;72.81
55347;BME280;41218;55.700;38.270;2023-07-29T01:30:33;98776.81;;;17.43;72.63
55347;BME280;41218;55.700;38.270;2023-07-29T01:35:42;98758.53;;;17.26;72.67
55347;BME280;41218;55.700;38.270;2023-07-29T01:40:44;98757.84;;;17.21;72.90
55347;BME280;41218;55.700;38.270;2023-07-29T01:45:46;98748.63;;;17.08;73.08
55347;BME280;41218;55.700;38.270;2023-07-29T01:50:46;98754.03;;;17.15;72.91
55347;BME280;41218;55.700;38.270;2023-07-29T01:55:47;98764.34;;;17.02;73.05
55347;BME280;41218;55.700;38.270;2023-07-29T02:00:47;98789.28;;;17.09;72.96
55347;BME280;41218;55.700;38.270;2023-07-29T02:05:48;98740.34;;;16.88;73.11
55347;BME280;41218;55.700;38.270;2023-07-29T02:10:48;98775.56;;;16.98;73.06
55347;BME280;41218;55.700;38.270;2023-07-29T02:15:49;98771.66;;;16.79;73.22
55347;BME280;41218;55.700;38.270;2023-07-29T02:20:49;98798.69;;;16.82;73.69
55347;BME280;41218;55.700;38.270;2023-07-29T02:25:50;98802.72;;;16.81;73.63
55347;BME280;41218;55.700;38.270;2023-07-29T02:31:08;98842.75;;;16.91;73.57
55347;BME280;41218;55.700;38.270;2023-07-29T02:36:10;98851.72;;;16.82;73.67
55347;BME280;41218;55.700;38.270;2023-07-29T02:41:11;98833.00;;;16.83;73.94
55347;BME280;41218;55.700;38.270;2023-07-29T02:46:13;98836.03;;;16.89;73.75
55347;BME280;41218;55.700;38.270;2023-07-29T02:51:13;98812.66;;;16.99;73.73
55347;BME280;41218;55.700;38.270;2023-07-29T02:56:14;98783.81;;;16.89;73.69
55347;BME280;41218;55.700;38.270;2023-07-29T03:01:14;98769.22;;;16.81;73.76
55347;BME280;41218;55.700;38.270;2023-07-29T03:06:15;98783.97;;;16.98;73.79
55347;BME280;41218;55.700;38.270;2023-07-29T03:11:16;98781.78;;;16.90;73.53
55347;BME280;41218;55.700;38.270;2023-07-29T03:16:17;98784.16;;;16.91;73.64
55347;BME280;41218;55.700;38.270;2023-07-29T03:21:17;98776.38;;;16.82;73.83
55347;BME280;41218;55.700;38.270;2023-07-29T03:26:18;98766.59;;;16.91;73.87
55347;BME280;41218;55.700;38.270;2023-07-29T03:31:18;98764.00;;;16.84;73.90
55347;BME280;41218;55.700;38.270;2023-07-29T03:36:19;98762.59;;;16.92;73.93
55347;BME280;41218;55.700;38.270;2023-07-29T03:41:21;98742.16;;;16.78;73.86
55347;BME280;41218;55.700;38.270;2023-07-29T03:46:21;98741.94;;;16.89;73.70
55347;BME280;41218;55.700;38.270;2023-07-29T03:51:22;98725.94;;;16.73;73.83
55347;BME280;41218;55.700;38.270;2023-07-29T03:56:24;98740.88;;;16.67;74.26
55347;BME280;41218;55.700;38.270;2023-07-29T04:01:25;98750.28;;;16.73;74.08
55347;BME280;41218;55.700;38.270;2023-07-29T04:06:25;98739.00;;;16.60;74.35
55347;BME280;41218;55.700;38.270;2023-07-29T04:11:26;98743.91;;;16.72;74.05
55347;BME280;41218;55.700;38.270;2023-07-29T04:16:26;98725.50;;;16.58;74.45
55347;BME280;41218;55.700;38.270;2023-07-29T04:21:26;98716.53;;;16.67;74.21
55347;BME280;41218;55.700;38.270;2023-07-29T04:26:27;98688.81;;;16.60;74.43
55347;BME280;41218;55.700;38.270;2023-07-29T04:31:29;98666.69;;;16.53;74.73
55347;BME280;41218;55.700;38.270;2023-07-29T04:36:30;98622.91;;;16.50;74.49
55347;BME280;41218;55.700;38.270;2023-07-29T04:41:30;98605.56;;;16.42;74.93
55347;BME280;41218;55.700;38.270;2023-07-29T04:46:31;98586.59;;;16.37;75.17
55347;BME280;41218;55.700;38.270;2023-07-29T04:51:31;98612.47;;;16.37;75.43
55347;BME280;41218;55.700;38.270;2023-07-29T04:56:32;98634.06;;;16.50;75.07
55347;BME280;41218;55.700;38.270;2023-07-29T05:01:32;98620.31;;;16.42;75.25
55347;BME280;41218;55.700;38.270;2023-07-29T05:06:33;98646.13;;;16.47;75.17
55347;BME280;41218;55.700;38.270;2023-07-29T05:11:34;98650.63;;;16.57;75.15
55347;BME280;41218;55.700;38.270;2023-07-29T05:16:34;98650.13;;;16.46;75.34
55347;BME280;41218;55.700;38.270;2023-07-29T05:21:35;98682.00;;;16.61;75.08
55347;BME280;41218;55.700;38.270;2023-07-29T05:26:35;98692.47;;;16.57;75.25
55347;BME280;41218;55.700;38.270;2023-07-29T05:31:35;98712.00;;;16.73;75.27
55347;BME280;41218;55.700;38.270;2023-07-29T05:36:36;98712.84;;;16.70;75.18
55347;BME280;41218;55.700;38.270;2023-07-29T05:41:36;98719.00;;;16.81;75.09
55347;BME280;41218;55.700;38.270;2023-07-29T05:46:37;98718.44;;;16.70;75.01
55347;BME280;41218;55.700;38.270;2023-07-29T05:51:37;98717.84;;;16.79;74.94
55347;BME280;41218;55.700;38.270;2023-07-29T05:56:38;98706.94;;;16.68;75.01
55347;BME280;41218;55.700;38.270;2023-07-29T06:01:38;98713.91;;;16.76;75.22
55347;BME280;41218;55.700;38.270;2023-07-29T06:06:39;98712.09;;;16.70;75.26
55347;BME280;41218;55.700;38.270;2023-07-29T06:11:39;98720.56;;;16.82;75.17
55347;BME280;41218;55.700;38.270;2023-07-29T06:16:39;98721.56;;;16.72;75.16
55347;BME280;41218;55.700;38.270;2023-07-29T06:21:40;98727.63;;;16.87;75.18
55347;BME280;41218;55.700;38.270;2023-07-29T06:26:40;98724.63;;;16.78;75.26
55347;BME280;41218;55.700;38.270;2023-07-29T06:31:41;98739.50;;;16.91;75.29
55347;BME280;41218;55.700;38.270;2023-07-29T06:36:41;98729.38;;;16.81;75.26
55347;BME280;41218;55.700;38.270;2023-07-29T06:41:42;98725.19;;;16.89;75.76
55347;BME280;41218;55.700;38.270;2023-07-29T06:46:42;98726.75;;;16.90;75.44
55347;BME280;41218;55.700;38.270;2023-07-29T06:51:43;98741.56;;;17.04;75.19
55347;BME280;41218;55.700;38.270;2023-07-29T06:56:43;98732.66;;;16.92;75.32
55347;BME280;41218;55.700;38.270;2023-07-29T07:01:44;98713.34;;;16.85;75.47
55347;BME280;41218;55.700;38.270;2023-07-29T07:06:44;98735.97;;;17.04;75.59
55347;BME280;41218;55.700;38.270;2023-07-29T07:11:46;98737.28;;;16.99;75.47
55347;BME280;41218;55.700;38.270;2023-07-29T07:16:47;98737.38;;;16.95;75.23
55347;BME280;41218;55.700;38.270;2023-07-29T07:21:48;98739.03;;;17.09;75.43
55347;BME280;41218;55.700;38.270;2023-07-29T07:26:48;98721.41;;;16.96;75.25
55347;BME280;41218;55.700;38.270;2023-07-29T07:31:50;98734.22;;;17.10;75.28
55347;BME280;41218;55.700;38.270;2023-07-29T07:36:52;98730.91;;;16.98;75.20
55347;BME280;41218;55.700;38.270;2023-07-29T07:41:52;98742.94;;;17.12;75.13
55347;BME280;41218;55.700;38.270;2023-07-29T07:46:53;98743.56;;;17.03;75.07
55347;BME280;41218;55.700;38.270;2023-07-29T07:51:56;98739.38;;;16.95;75.26
55347;BME280;41218;55.700;38.270;2023-07-29T07:56:56;98751.84;;;17.07;75.28
55347;BME280;41218;55.700;38.270;2023-07-29T08:01:57;98752.03;;;16.99;75.10
55347;BME280;41218;55.700;38.270;2023-07-29T08:06:57;98757.78;;;17.09;75.22
55347;BME280;41218;55.700;38.270;2023-07-29T08:11:58;98744.53;;;16.96;75.35
55347;BME280;41218;55.700;38.270;2023-07-29T08:16:58;98759.00;;;17.08;75.20
55347;BME280;41218;55.700;38.270;2023-07-29T08:21:59;98756.13;;;16.95;75.17
55347;BME280;41218;55.700;38.270;2023-07-29T08:26:59;98762.22;;;17.06;75.02
55347;BME280;41218;55.700;38.270;2023-07-29T08:32:00;98751.09;;;16.90;75.31
55347;BME280;41218;55.700;38.270;2023-07-29T08:37:01;98764.59;;;16.91;75.70
55347;BME280;41218;55.700;38.270;2023-07-29T08:42:04;98770.63;;;16.90;75.71
55347;BME280;41218;55.700;38.270;2023-07-29T08:47:06;98768.25;;;16.88;75.79
55347;BME280;41218;55.700;38.270;2023-07-29T08:52:07;98769.91;;;17.02;75.47
55347;BME280;41218;55.700;38.270;2023-07-29T08:57:07;98761.56;;;16.86;75.50
55347;BME280;41218;55.700;38.270;2023-07-29T09:02:08;98772.19;;;17.07;75.41
55347;BME280;41218;55.700;38.270;2023-07-29T09:07:09;98773.69;;;16.95;75.40
55347;BME280;41218;55.700;38.270;2023-07-29T09:12:10;98772.63;;;16.89;75.30
55347;BME280;41218;55.700;38.270;2023-07-29T09:17:12;98792.06;;;16.93;75.56
55347;BME280;41218;55.700;38.270;2023-07-29T09:22:21;98794.25;;;17.01;75.55
55347;BME280;41218;55.700;38.270;2023-07-29T09:27:26;98800.44;;;16.93;75.55
55347;BME280;41218;55.700;38.270;2023-07-29T09:32:27;98814.03;;;16.91;75.51
55347;BME280;41218;55.700;38.270;2023-07-29T09:37:27;98811.88;;;16.98;75.39
55347;BME280;41218;55.700;38.270;2023-07-29T09:42:28;98792.69;;;16.84;75.29
55347;BME280;41218;55.700;38.270;2023-07-29T09:47:28;98810.81;;;16.92;75.20
55347;BME280;41218;55.700;38.270;2023-07-29T09:52:30;98807.56;;;16.77;75.22
55347;BME280;41218;55.700;38.270;2023-07-29T09:57:31;98806.63;;;16.84;75.33
55347;BME280;41218;55.700;38.270;2023-07-29T10:02:32;98796.41;;;16.77;75.51
55347;BME280;41218;55.700;38.270;2023-07-29T10:07:33;98802.84;;;16.74;75.24
55347;BME280;41218;55.700;38.270;2023-07-29T10:12:35;98800.59;;;16.69;75.43
55347;BME280;41218;55.700;38.270;2023-07-29T10:17:36;98803.53;;;16.78;75.24
55347;BME280;41218;55.700;38.270;2023-07-29T10:22:40;98794.59;;;16.71;75.27
55347;BME280;41218;55.700;38.270;2023-07-29T10:27:56;98787.84;;;16.68;75.77
55347;BME280;41218;55.700;38.270;2023-07-29T10:33:03;98802.59;;;16.69;75.49
55347;BME280;41218;55.700;38.270;2023-07-29T10:38:08;98811.03;;;16.65;75.54
55347;BME280;41218;55.700;38.270;2023-07-29T10:43:10;98808.25;;;16.65;75.63
55347;BME280;41218;55.700;38.270;2023-07-29T10:48:12;98810.41;;;16.57;75.39
55347;BME280;41218;55.700;38.270;2023-07-29T10:53:13;98810.91;;;16.52;75.69
55347;BME280;41218;55.700;38.270;2023-07-29T10:58:14;98822.63;;;16.63;75.51
55347;BME280;41218;55.700;38.270;2023-07-29T11:03:15;98819.41;;;16.49;75.59
55347;BME280;41218;55.700;38.270;2023-07-29T11:08:17;98829.16;;;16.57;75.58
55347;BME280;41218;55.700;38.270;2023-07-29T11:13:18;98823.03;;;16.46;75.57
55347;BME280;41218;55.700;38.270;2023-07-29T11:18:19;98825.56;;;16.56;75.50
55347;BME280;41218;55.700;38.270;2023-07-29T11:23:27;98823.75;;;16.50;75.62
55347;BME280;41218;55.700;38.270;2023-07-29T11:28:29;98829.66;;;16.52;75.72
55347;BME280;41218;55.700;38.270;2023-07-29T11:33:29;98827.50;;;16.59;75.54
55347;BME280;41218;55.700;38.270;2023-07-29T11:38:30;98839.63;;;16.53;75.64
55347;BME280;41218;55.700;38.270;2023-07-29T11:43:37;98839.69;;;16.49;75.76
55347;BME280;41218;55.700;38.270;2023-07-29T11:48:37;98847.41;;;16.61;75.71
55347;BME280;41218;55.700;38.270;2023-07-29T11:53:38;98851.97;;;16.52;75.71
55347;BME280;41218;55.700;38.270;2023-07-29T11:58:38;98844.50;;;16.49;75.92
55347;BME280;41218;55.700;38.270;2023-07-29T12:03:39;98853.41;;;16.60;75.69
55347;BME280;41218;55.700;38.270;2023-07-29T12:08:39;98836.47;;;16.51;75.71
55347;BME280;41218;55.700;38.270;2023-07-29T12:13:41;98850.59;;;16.60;75.85
55347;BME280;41218;55.700;38.270;2023-07-29T12:18:42;98852.63;;;16.59;75.37
55347;BME280;41218;55.700;38.270;2023-07-29T12:23:43;98845.00;;;16.43;75.80
55347;BME280;41218;55.700;38.270;2023-07-29T12:28:46;98851.34;;;16.44;76.12
55347;BME280;41218;55.700;38.270;2023-07-29T12:33:48;98846.66;;;16.41;76.06
55347;BME280;41218;55.700;38.270;2023-07-29T12:38:49;98859.50;;;16.55;75.86
55347;BME280;41218;55.700;38.270;2023-07-29T12:43:49;98864.44;;;16.47;75.75
55347;BME280;41218;55.700;38.270;2023-07-29T12:48:50;98845.41;;;16.42;76.21
55347;BME280;41218;55.700;38.270;2023-07-29T12:53:50;98855.38;;;16.43;76.24
55347;BME280;41218;55.700;38.270;2023-07-29T12:58:51;98850.16;;;16.45;76.19
55347;BME280;41218;55.700;38.270;2023-07-29T13:03:51;98855.56;;;16.52;76.15
55347;BME280;41218;55.700;38.270;2023-07-29T13:08:52;98848.94;;;16.62;76.11
55347;BME280;41218;55.700;38.270;2023-07-29T13:13:52;98834.41;;;16.55;75.82
55347;BME280;41218;55.700;38.270;2023-07-29T13:18:53;98824.16;;;16.48;75.95
55347;BME280;41218;55.700;38.270;2023-07-29T13:23:53;98825.50;;;16.60;75.98
55347;BME280;41218;55.700;38.270;2023-07-29T13:28:54;98817.38;;;16.49;76.10
55347;BME280;41218;55.700;38.270;2023-07-29T13:33:56;98811.81;;;16.49;76.19
55347;BME280;41218;55.700;38.270;2023-07-29T13:38:56;98818.25;;;16.62;76.19
55347;BME280;41218;55.700;38.270;2023-07-29T13:43:56;98810.16;;;16.52;76.10
55347;BME280;41218;55.700;38.270;2023-07-29T13:48:57;98811.63;;;16.56;76.20
55347;BME280;41218;55.700;38.270;2023-07-29T13:53:58;98803.25;;;16.56;76.18
55347;BME280;41218;55.700;38.270;2023-07-29T13:58:58;98816.44;;;16.72;76.29
55347;BME280;41218;55.700;38.270;2023-07-29T14:03:58;98793.69;;;16.57;76.13
55347;BME280;41218;55.700;38.270;2023-07-29T14:08:59;98800.94;;;16.71;75.96
55347;BME280;41218;55.700;38.270;2023-07-29T14:13:59;98794.38;;;16.61;75.92
55347;BME280;41218;55.700;38.270;2023-07-29T14:19:00;98804.59;;;16.68;76.08
55347;BME280;41218;55.700;38.270;2023-07-29T14:24:01;98801.97;;;16.61;76.10
55347;BME280;41218;55.700;38.270;2023-07-29T14:29:01;98810.50;;;16.70;76.34
55347;BME280;41218;55.700;38.270;2023-07-29T14:34:01;98808.69;;;16.63;76.29
55347;BME280;41218;55.700;38.270;2023-07-29T14:39:02;98818.03;;;16.73;76.25
55347;BME280;41218;55.700;38.270;2023-07-29T14:44:03;98796.91;;;16.56;76.19
55347;BME280;41218;55.700;38.270;2023-07-29T14:49:04;98809.81;;;16.66;76.33
55347;BME280;41218;55.700;38.270;2023-07-29T14:54:05;98796.81;;;16.59;76.43
55347;BME280;41218;55.700;38.270;2023-07-29T14:59:05;98805.56;;;16.78;76.44
55347;BME280;41218;55.700;38.270;2023-07-29T15:04:06;98802.59;;;16.69;76.23
55347;BME280;41218;55.700;38.270;2023-07-29T15:09:06;98809.47;;;16.80;76.08
55347;BME280;41218;55.700;38.270;2023-07-29T15:14:07;98804.16;;;16.70;76.20
55347;BME280;41218;55.700;38.270;2023-07-29T15:19:08;98809.13;;;16.78;76.14
55347;BME280;41218;55.700;38.270;2023-07-29T15:24:08;98815.66;;;16.72;75.88
55347;BME280;41218;55.700;38.270;2023-07-29T15:29:10;98822.13;;;16.69;76.02
55347;BME280;41218;55.700;38.270;2023-07-29T15:34:11;98828.63;;;16.82;76.11
55347;BME280;41218;55.700;38.270;2023-07-29T15:39:11;98824.81;;;16.72;76.00
55347;BME280;41218;55.700;38.270;2023-07-29T15:44:12;98834.78;;;16.73;76.15
55347;BME280;41218;55.700;38.270;2023-07-29T15:49:13;98816.34;;;16.59;75.84
55347;BME280;41218;55.700;38.270;2023-07-29T15:54:15;98827.50;;;16.59;76.37
55347;BME280;41218;55.700;38.270;2023-07-29T15:59:15;98825.97;;;16.75;76.17
55347;BME280;41218;55.700;38.270;2023-07-29T16:04:17;98814.00;;;16.58;75.99
55347;BME280;41218;55.700;38.270;2023-07-29T16:09:20;98810.06;;;16.55;76.03
55347;BME280;41218;55.700;38.270;2023-07-29T16:14:21;98815.66;;;16.55;75.89
55347;BME280;41218;55.700;38.270;2023-07-29T16:19:25;98819.16;;;16.59;75.97
55347;BME280;41218;55.700;38.270;2023-07-29T16:24:27;98818.78;;;16.57;75.75
55347;BME280;41218;55.700;38.270;2023-07-29T16:29:28;98829.63;;;16.72;75.84
55347;BME280;41218;55.700;38.270;2023-07-29T16:34:28;98824.88;;;16.52;75.63
55347;BME280;41218;55.700;38.270;2023-07-29T16:39:29;98844.09;;;16.67;75.74
55347;BME280;41218;55.700;38.270;2023-07-29T16:44:29;98825.69;;;16.53;75.47
55347;BME280;41218;55.700;38.270;2023-07-29T16:49:30;98826.94;;;16.48;75.75
55347;BME280;41218;55.700;38.270;2023-07-29T16:54:30;98846.69;;;16.57;75.64
55347;BME280;41218;55.700;38.270;2023-07-29T16:59:31;98817.09;;;16.43;75.46
55347;BME280;41218;55.700;38.270;2023-07-29T17:04:31;98823.66;;;16.53;75.42
55347;BME280;41218;55.700;38.270;2023-07-29T17:09:32;98827.13;;;16.41;75.39
55347;BME280;41218;55.700;38.270;2023-07-29T17:14:33;98833.13;;;16.39;75.51
55347;BME280;41218;55.700;38.270;2023-07-29T17:19:33;98829.22;;;16.37;75.68
55347;BME280;41218;55.700;38.270;2023-07-29T17:24:34;98840.47;;;16.50;75.30
55347;BME280;41218;55.700;38.270;2023-07-29T17:29:34;98847.84;;;16.40;75.30
55347;BME280;41218;55.700;38.270;2023-07-29T17:34:35;98845.53;;;16.38;75.54
55347;BME280;41218;55.700;38.270;2023-07-29T17:39:36;98836.09;;;16.32;75.35
55347;BME280;41218;55.700;38.270;2023-07-29T17:44:41;98832.72;;;16.21;75.22
55347;BME280;41218;55.700;38.270;2023-07-29T17:49:43;98851.75;;;16.26;75.25
55347;BME280;41218;55.700;38.270;2023-07-29T17:54:43;98870.25;;;16.36;75.30
55347;BME280;41218;55.700;38.270;2023-07-29T17:59:45;98873.34;;;16.22;75.20
55347;BME280;41218;55.700;38.270;2023-07-29T18:04:45;98865.53;;;16.13;75.15
55347;BME280;41218;55.700;38.270;2023-07-29T18:09:47;98872.34;;;16.12;75.04
55347;BME280;41218;55.700;38.270;2023-07-29T18:14:50;98865.41;;;16.20;74.92
55347;BME280;41218;55.700;38.270;2023-07-29T18:19:50;98866.13;;;16.05;74.81
55347;BME280;41218;55.700;38.270;2023-07-29T18:24:52;98881.72;;;16.02;75.03
55347;BME280;41218;55.700;38.270;2023-07-29T18:29:53;98881.19;;;16.07;74.69
55347;BME280;41218;55.700;38.270;2023-07-29T18:34:53;98880.28;;;15.94;74.93
55347;BME280;41218;55.700;38.270;2023-07-29T18:39:54;98889.97;;;15.86;74.50
55347;BME280;41218;55.700;38.270;2023-07-29T18:44:56;98879.09;;;15.91;74.50
55347;BME280;41218;55.700;38.270;2023-07-29T18:49:56;98876.25;;;15.71;74.70
55347;BME280;41218;55.700;38.270;2023-07-29T18:54:59;98873.63;;;15.64;74.53
55347;BME280;41218;55.700;38.270;2023-07-29T19:00:00;98872.53;;;15.58;74.54
55347;BME280;41218;55.700;38.270;2023-07-29T19:05:01;98886.47;;;15.58;74.74
55347;BME280;41218;55.700;38.270;2023-07-29T19:10:01;98877.06;;;15.48;74.46
55347;BME280;41218;55.700;38.270;2023-07-29T19:15:03;98872.00;;;15.43;74.58
55347;BME280;41218;55.700;38.270;2023-07-29T19:20:05;98859.84;;;15.33;74.51
55347;BME280;41218;55.700;38.270;2023-07-29T19:25:07;98865.09;;;15.28;74.52
55347;BME280;41218;55.700;38.270;2023-07-29T19:30:11;98879.44;;;15.26;74.42
55347;BME280;41218;55.700;38.270;2023-07-29T19:35:12;98879.63;;;15.15;74.51
55347;BME280;41218;55.700;38.270;2023-07-29T19:40:12;98895.41;;;15.22;74.47
55347;BME280;41218;55.700;38.270;2023-07-29T19:45:14;98880.03;;;15.14;74.30
55347;BME280;41218;55.700;38.270;2023-07-29T19:50:16;98870.13;;;15.13;74.19
55347;BME280;41218;55.700;38.270;2023-07-29T19:55:18;98869.44;;;15.05;74.45
55347;BME280;41218;55.700;38.270;2023-07-29T20:00:19;98876.16;;;15.08;74.79
55347;BME280;41218;55.700;38.270;2023-07-29T20:05:20;98864.25;;;15.07;74.74
55347;BME280;41218;55.700;38.270;2023-07-29T20:10:20;98860.31;;;15.05;74.32
55347;BME280;41218;55.700;38.270;2023-07-29T20:15:21;98866.28;;;15.03;74.64
55347;BME280;41218;55.700;38.270;2023-07-29T20:20:22;98860.41;;;14.97;74.58
55347;BME280;41218;55.700;38.270;2023-07-29T20:25:23;98870.28;;;15.02;74.49
55347;BME280;41218;55.700;38.270;2023-07-29T20:30:24;98871.09;;;15.02;74.49
55347;BME280;41218;55.700;38.270;2023-07-29T20:35:24;98868.34;;;14.99;74.37
55347;BME280;41218;55.700;38.270;2023-07-29T20:40:25;98862.47;;;14.93;74.53
55347;BME280;41218;55.700;38.270;2023-07-29T20:45:26;98858.94;;;14.89;74.55
55347;BME280;41218;55.700;38.270;2023-07-29T20:50:26;98863.31;;;14.90;74.54
55347;BME280;41218;55.700;38.270;2023-07-29T20:55:27;98854.22;;;14.86;74.52
55347;BME280;41218;55.700;38.270;2023-07-29T21:00:27;98860.63;;;14.83;74.70
55347;BME280;41218;55.700;38.270;2023-07-29T21:05:33;98878.47;;;14.86;74.49
55347;BME280;41218;55.700;38.270;2023-07-29T21:10:33;98867.50;;;14.75;74.32
55347;BME280;41218;55.700;38.270;2023-07-29T21:15:34;98873.41;;;14.80;74.36
55347;BME280;41218;55.700;38.270;2023-07-29T21:20:35;98866.28;;;14.76;74.48
55347;BME280;41218;55.700;38.270;2023-07-29T21:25:36;98857.34;;;14.65;74.45
55347;BME280;41218;55.700;38.270;2023-07-29T21:30:36;98861.38;;;14.60;74.30
55347;BME280;41218;55.700;38.270;2023-07-29T21:35:37;98861.41;;;14.56;74.20
55347;BME280;41218;55.700;38.270;2023-07-29T21:40:38;98869.00;;;14.52;74.12
55347;BME280;41218;55.700;38.270;2023-07-29T21:45:39;98878.81;;;14.64;74.15
55347;BME280;41218;55.700;38.270;2023-07-29T21:50:43;98859.59;;;14.42;73.82
55347;BME280;41218;55.700;38.270;2023-07-29T21:55:44;98862.00;;;14.40;74.02
55347;BME280;41218;55.700;38.270;2023-07-29T22:00:51;98838.81;;;14.23;73.88
55347;BME280;41218;55.700;38.270;2023-07-29T22:05:52;98840.41;;;14.21;74.20
55347;BME280;41218;55.700;38.270;2023-07-29T22:10:52;98837.59;;;14.25;73.95
55347;BME280;41218;55.700;38.270;2023-07-29T22:15:56;98834.47;;;14.19;74.01
55347;BME280;41218;55.700;38.270;2023-07-29T22:20:57;98832.91;;;14.18;74.04
55347;BME280;41218;55.700;38.270;2023-07-29T22:26:02;98831.38;;;14.13;73.95
55347;BME280;41218;55.700;38.270;2023-07-29T22:31:03;98834.94;;;14.14;73.90
55347;BME280;41218;55.700;38.270;2023-07-29T22:36:08;98834.63;;;14.08;74.09
55347;BME280;41218;55.700;38.270;2023-07-29T22:41:09;98832.25;;;14.07;73.99
55347;BME280;41218;55.700;38.270;2023-07-29T22:46:09;98838.63;;;14.07;73.95
55347;BME280;41218;55.700;38.270;2023-07-29T22:51:10;98842.22;;;14.04;73.77
55347;BME280;41218;55.700;38.270;2023-07-29T22:56:10;98841.84;;;14.02;74.09
55347;BME280;41218;55.700;38.270;2023-07-29T23:01:11;98839.88;;;13.99;74.11
55347;BME280;41218;55.700;38.270;2023-07-29T23:06:11;98840.69;;;13.99;74.00
55347;BME280;41218;55.700;38.270;2023-07-29T23:11:12;98858.50;;;14.02;73.81
55347;BME280;41218;55.700;38.270;2023-07-29T23:16:12;98845.03;;;14.00;74.02
55347;BME280;41218;55.700;38.270;2023-07-29T23:21:13;98837.16;;;13.95;73.94
55347;BME280;41218;55.700;38.270;2023-07-29T23:26:14;98839.94;;;13.95;74.00
55347;BME280;41218;55.700;38.270;2023-07-29T23:31:14;98836.34;;;13.95;74.08
55347;BME280;41218;55.700;38.270;2023-07-29T23:36:15;98839.19;;;13.91;74.09
55347;BME280;41218;55.700;38.270;2023-07-29T23:41:15;98834.78;;;13.94;74.06
55347;BME280;41218;55.700;38.270;2023-07-29T23:46:16;98840.78;;;13.89;74.18
55347;BME280;41218;55.700;38.270;2023-07-29T23:51:16;98832.44;;;13.89;74.13
55347;BME280;41218;55.700;38.270;2023-07-29T23:56:17;98831.69;;;13.88;74.34
